You are not logged in, Click here to log in
ICAO: OERK Country: 沙烏地阿拉伯王國
Latitude: 24.9582 Longitude: 46.7008
Total Arrivals: 1 Total Departures: 0
Latest Arrival: BR0090 (ZSNJ-OERK)Stone. Chang Latest Departure: (-).
Scenery:
METAR : OERK 210700Z 15003KT CAVOK 38/11 Q1011 NOSIG

哈立德國王國際機場